27°C Temp
16°C Dewpoint
51% Humidity
Temperature
5 KM/H
3 MPH
3 KTS
200°
South South
West

Wind Speed
Clear
Conditions
Pressure 1015.92 (hPa) - 30 (in)
Visibility 6.2 (mi) - 10.0 (km)

Current Conditions
LIMP
Location 40(km)
Metar :LIMP 151750Z 20003KT CAVOK 27/16 Q1016
Sun 15th May 18:50 pm

Airport
  Metar Aviation API Data Provided by https://www.checkwx.com/ PHP scripts by weather34.com ©2022